sensor_id;sensor_type;location;lat;lon;timestamp;P1;durP1;ratioP1;P2;durP2;ratioP2
1410;SDS011;700;51.906;8.404;2023-04-08T00:02:08;8.20;;;5.90;;
1410;SDS011;700;51.906;8.404;2023-04-08T00:07:11;11.83;;;8.00;;
1410;SDS011;700;51.906;8.404;2023-04-08T00:12:15;7.63;;;6.27;;
1410;SDS011;700;51.906;8.404;2023-04-08T00:17:15;7.20;;;6.50;;
1410;SDS011;700;51.906;8.404;2023-04-08T00:22:16;6.87;;;5.37;;
1410;SDS011;700;51.906;8.404;2023-04-08T00:27:17;7.40;;;6.60;;
1410;SDS011;700;51.906;8.404;2023-04-08T00:32:18;6.23;;;5.53;;
1410;SDS011;700;51.906;8.404;2023-04-08T00:37:18;8.20;;;7.00;;
1410;SDS011;700;51.906;8.404;2023-04-08T00:42:20;6.70;;;6.00;;
1410;SDS011;700;51.906;8.404;2023-04-08T00:47:25;6.73;;;6.03;;
1410;SDS011;700;51.906;8.404;2023-04-08T00:52:26;7.60;;;5.97;;
1410;SDS011;700;51.906;8.404;2023-04-08T00:57:29;6.30;;;5.40;;
1410;SDS011;700;51.906;8.404;2023-04-08T01:02:35;7.70;;;6.03;;
1410;SDS011;700;51.906;8.404;2023-04-08T01:07:46;7.17;;;6.50;;
1410;SDS011;700;51.906;8.404;2023-04-08T01:12:56;9.03;;;6.97;;
1410;SDS011;700;51.906;8.404;2023-04-08T01:17:58;9.60;;;7.53;;
1410;SDS011;700;51.906;8.404;2023-04-08T01:28:39;9.60;;;8.10;;
1410;SDS011;700;51.906;8.404;2023-04-08T01:33:45;9.90;;;7.60;;
1410;SDS011;700;51.906;8.404;2023-04-08T01:38:50;9.20;;;8.30;;
1410;SDS011;700;51.906;8.404;2023-04-08T01:43:53;9.03;;;7.10;;
1410;SDS011;700;51.906;8.404;2023-04-08T01:48:59;10.27;;;8.33;;
1410;SDS011;700;51.906;8.404;2023-04-08T01:54:00;8.83;;;7.93;;
1410;SDS011;700;51.906;8.404;2023-04-08T01:59:04;9.77;;;8.00;;
1410;SDS011;700;51.906;8.404;2023-04-08T02:04:09;8.90;;;7.37;;
1410;SDS011;700;51.906;8.404;2023-04-08T02:09:14;10.07;;;7.43;;
1410;SDS011;700;51.906;8.404;2023-04-08T02:14:17;10.93;;;7.47;;
1410;SDS011;700;51.906;8.404;2023-04-08T02:19:33;9.77;;;7.50;;
1410;SDS011;700;51.906;8.404;2023-04-08T02:24:40;8.67;;;7.73;;
1410;SDS011;700;51.906;8.404;2023-04-08T02:29:41;8.30;;;6.43;;
1410;SDS011;700;51.906;8.404;2023-04-08T02:34:42;8.07;;;6.97;;
1410;SDS011;700;51.906;8.404;2023-04-08T02:39:46;8.03;;;6.40;;
1410;SDS011;700;51.906;8.404;2023-04-08T02:44:49;8.90;;;7.20;;
1410;SDS011;700;51.906;8.404;2023-04-08T02:49:50;7.80;;;7.00;;
1410;SDS011;700;51.906;8.404;2023-04-08T02:54:52;8.23;;;6.40;;
1410;SDS011;700;51.906;8.404;2023-04-08T02:59:52;8.50;;;6.50;;
1410;SDS011;700;51.906;8.404;2023-04-08T03:04:54;9.00;;;6.73;;
1410;SDS011;700;51.906;8.404;2023-04-08T03:09:55;9.00;;;6.30;;
1410;SDS011;700;51.906;8.404;2023-04-08T03:14:55;7.20;;;6.23;;
1410;SDS011;700;51.906;8.404;2023-04-08T03:19:56;8.23;;;6.20;;
1410;SDS011;700;51.906;8.404;2023-04-08T03:24:57;6.23;;;5.63;;
1410;SDS011;700;51.906;8.404;2023-04-08T03:29:57;7.93;;;6.27;;
1410;SDS011;700;51.906;8.404;2023-04-08T03:35:02;9.10;;;6.10;;
1410;SDS011;700;51.906;8.404;2023-04-08T03:40:04;7.27;;;5.57;;
1410;SDS011;700;51.906;8.404;2023-04-08T03:45:10;6.30;;;5.30;;
1410;SDS011;700;51.906;8.404;2023-04-08T03:50:11;7.50;;;5.90;;
1410;SDS011;700;51.906;8.404;2023-04-08T03:55:11;6.57;;;5.73;;
1410;SDS011;700;51.906;8.404;2023-04-08T04:00:12;7.10;;;6.50;;
1410;SDS011;700;51.906;8.404;2023-04-08T04:05:13;9.10;;;6.43;;
1410;SDS011;700;51.906;8.404;2023-04-08T04:10:14;8.30;;;6.43;;
1410;SDS011;700;51.906;8.404;2023-04-08T04:15:14;7.07;;;6.37;;
1410;SDS011;700;51.906;8.404;2023-04-08T04:20:18;7.20;;;5.93;;
1410;SDS011;700;51.906;8.404;2023-04-08T04:25:21;7.50;;;6.80;;
1410;SDS011;700;51.906;8.404;2023-04-08T04:30:22;7.00;;;6.30;;
1410;SDS011;700;51.906;8.404;2023-04-08T04:35:23;8.27;;;7.23;;
1410;SDS011;700;51.906;8.404;2023-04-08T04:40:26;8.10;;;6.10;;
1410;SDS011;700;51.906;8.404;2023-04-08T04:45:28;8.97;;;7.47;;
1410;SDS011;700;51.906;8.404;2023-04-08T04:50:31;8.27;;;7.50;;
1410;SDS011;700;51.906;8.404;2023-04-08T04:55:35;8.43;;;7.53;;
1410;SDS011;700;51.906;8.404;2023-04-08T05:00:35;9.70;;;7.60;;
1410;SDS011;700;51.906;8.404;2023-04-08T05:05:36;8.50;;;7.70;;
1410;SDS011;700;51.906;8.404;2023-04-08T05:10:38;11.20;;;8.57;;
1410;SDS011;700;51.906;8.404;2023-04-08T05:15:42;9.60;;;7.97;;
1410;SDS011;700;51.906;8.404;2023-04-08T05:20:44;9.10;;;8.20;;
1410;SDS011;700;51.906;8.404;2023-04-08T05:25:45;10.30;;;8.77;;
1410;SDS011;700;51.906;8.404;2023-04-08T05:30:48;9.93;;;8.93;;
1410;SDS011;700;51.906;8.404;2023-04-08T05:35:52;10.97;;;9.80;;
1410;SDS011;700;51.906;8.404;2023-04-08T05:40:53;10.70;;;9.60;;
1410;SDS011;700;51.906;8.404;2023-04-08T05:45:53;12.10;;;10.30;;
1410;SDS011;700;51.906;8.404;2023-04-08T05:50:56;16.97;;;13.60;;
1410;SDS011;700;51.906;8.404;2023-04-08T05:55:59;11.07;;;9.87;;
1410;SDS011;700;51.906;8.404;2023-04-08T06:01:02;11.57;;;10.37;;
1410;SDS011;700;51.906;8.404;2023-04-08T06:06:09;12.57;;;11.27;;
1410;SDS011;700;51.906;8.404;2023-04-08T06:11:13;11.00;;;9.90;;
1410;SDS011;700;51.906;8.404;2023-04-08T06:16:14;9.90;;;8.90;;
1410;SDS011;700;51.906;8.404;2023-04-08T06:21:18;11.80;;;10.60;;
1410;SDS011;700;51.906;8.404;2023-04-08T06:26:19;9.43;;;8.03;;
1410;SDS011;700;51.906;8.404;2023-04-08T06:31:20;10.20;;;9.10;;
1410;SDS011;700;51.906;8.404;2023-04-08T06:36:20;9.93;;;8.93;;
1410;SDS011;700;51.906;8.404;2023-04-08T06:41:21;8.53;;;7.73;;
1410;SDS011;700;51.906;8.404;2023-04-08T06:46:24;9.40;;;7.77;;
1410;SDS011;700;51.906;8.404;2023-04-08T06:51:25;10.30;;;7.90;;
1410;SDS011;700;51.906;8.404;2023-04-08T06:56:26;9.03;;;7.83;;
1410;SDS011;700;51.906;8.404;2023-04-08T07:01:27;12.40;;;7.60;;
1410;SDS011;700;51.906;8.404;2023-04-08T07:06:30;8.03;;;7.23;;
1410;SDS011;700;51.906;8.404;2023-04-08T07:11:31;11.03;;;7.77;;
1410;SDS011;700;51.906;8.404;2023-04-08T07:16:34;9.67;;;8.20;;
1410;SDS011;700;51.906;8.404;2023-04-08T07:21:35;7.80;;;7.10;;
1410;SDS011;700;51.906;8.404;2023-04-08T07:26:40;9.67;;;8.67;;
1410;SDS011;700;51.906;8.404;2023-04-08T07:31:43;10.30;;;8.13;;
1410;SDS011;700;51.906;8.404;2023-04-08T07:36:46;8.60;;;7.70;;
1410;SDS011;700;51.906;8.404;2023-04-08T07:41:47;9.33;;;8.33;;
1410;SDS011;700;51.906;8.404;2023-04-08T07:46:47;13.30;;;9.40;;
1410;SDS011;700;51.906;8.404;2023-04-08T07:51:50;12.40;;;9.00;;
1410;SDS011;700;51.906;8.404;2023-04-08T07:56:52;11.93;;;10.20;;
1410;SDS011;700;51.906;8.404;2023-04-08T08:01:52;11.13;;;8.93;;
1410;SDS011;700;51.906;8.404;2023-04-08T08:06:53;11.03;;;9.23;;
1410;SDS011;700;51.906;8.404;2023-04-08T08:11:54;10.43;;;9.33;;
1410;SDS011;700;51.906;8.404;2023-04-08T08:16:59;10.33;;;9.23;;
1410;SDS011;700;51.906;8.404;2023-04-08T08:22:04;8.73;;;7.83;;
1410;SDS011;700;51.906;8.404;2023-04-08T08:27:10;11.33;;;9.90;;
1410;SDS011;700;51.906;8.404;2023-04-08T08:32:13;9.50;;;8.43;;
1410;SDS011;700;51.906;8.404;2023-04-08T08:37:16;9.60;;;8.43;;
1410;SDS011;700;51.906;8.404;2023-04-08T08:42:23;9.13;;;8.17;;
1410;SDS011;700;51.906;8.404;2023-04-08T08:47:26;8.60;;;7.33;;
1410;SDS011;700;51.906;8.404;2023-04-08T08:52:27;9.33;;;7.93;;
1410;SDS011;700;51.906;8.404;2023-04-08T08:57:28;9.27;;;8.07;;
1410;SDS011;700;51.906;8.404;2023-04-08T09:02:29;9.57;;;7.87;;
1410;SDS011;700;51.906;8.404;2023-04-08T09:07:31;8.73;;;7.83;;
1410;SDS011;700;51.906;8.404;2023-04-08T09:12:54;8.53;;;7.47;;
1410;SDS011;700;51.906;8.404;2023-04-08T09:17:55;9.33;;;8.40;;
1410;SDS011;700;51.906;8.404;2023-04-08T09:22:58;11.23;;;8.80;;
1410;SDS011;700;51.906;8.404;2023-04-08T09:28:00;11.27;;;8.70;;
1410;SDS011;700;51.906;8.404;2023-04-08T09:33:02;10.20;;;8.43;;
1410;SDS011;700;51.906;8.404;2023-04-08T09:38:06;9.90;;;8.73;;
1410;SDS011;700;51.906;8.404;2023-04-08T09:43:06;13.60;;;9.73;;
1410;SDS011;700;51.906;8.404;2023-04-08T09:48:16;10.27;;;9.17;;
1410;SDS011;700;51.906;8.404;2023-04-08T09:53:29;10.13;;;8.83;;
1410;SDS011;700;51.906;8.404;2023-04-08T09:58:38;10.67;;;9.47;;
1410;SDS011;700;51.906;8.404;2023-04-08T10:03:47;12.70;;;9.30;;
1410;SDS011;700;51.906;8.404;2023-04-08T10:08:51;10.60;;;9.57;;
1410;SDS011;700;51.906;8.404;2023-04-08T10:13:54;11.63;;;10.40;;
1410;SDS011;700;51.906;8.404;2023-04-08T10:18:58;10.47;;;9.37;;
1410;SDS011;700;51.906;8.404;2023-04-08T10:23:59;15.07;;;11.27;;
1410;SDS011;700;51.906;8.404;2023-04-08T10:34:23;16.03;;;11.33;;
1410;SDS011;700;51.906;8.404;2023-04-08T10:39:25;11.47;;;10.27;;
1410;SDS011;700;51.906;8.404;2023-04-08T10:44:28;12.50;;;11.20;;
1410;SDS011;700;51.906;8.404;2023-04-08T10:49:33;14.07;;;11.20;;
1410;SDS011;700;51.906;8.404;2023-04-08T10:54:35;12.90;;;11.33;;
1410;SDS011;700;51.906;8.404;2023-04-08T10:59:38;14.20;;;11.17;;
1410;SDS011;700;51.906;8.404;2023-04-08T11:04:40;14.00;;;11.87;;
1410;SDS011;700;51.906;8.404;2023-04-08T11:09:46;16.33;;;12.10;;
1410;SDS011;700;51.906;8.404;2023-04-08T11:14:48;16.50;;;11.83;;
1410;SDS011;700;51.906;8.404;2023-04-08T11:19:53;17.17;;;12.90;;
1410;SDS011;700;51.906;8.404;2023-04-08T11:24:57;15.10;;;13.03;;
1410;SDS011;700;51.906;8.404;2023-04-08T11:30:01;14.10;;;12.60;;
1410;SDS011;700;51.906;8.404;2023-04-08T11:35:05;13.17;;;11.83;;
1410;SDS011;700;51.906;8.404;2023-04-08T11:40:07;13.40;;;12.00;;
1410;SDS011;700;51.906;8.404;2023-04-08T11:45:09;12.60;;;11.30;;
1410;SDS011;700;51.906;8.404;2023-04-08T11:50:11;14.17;;;12.50;;
1410;SDS011;700;51.906;8.404;2023-04-08T11:55:20;14.87;;;12.57;;
1410;SDS011;700;51.906;8.404;2023-04-08T12:00:25;15.07;;;13.50;;
1410;SDS011;700;51.906;8.404;2023-04-08T12:05:27;16.93;;;13.33;;
1410;SDS011;700;51.906;8.404;2023-04-08T12:10:28;16.13;;;13.70;;
1410;SDS011;700;51.906;8.404;2023-04-08T12:15:30;14.37;;;12.30;;
1410;SDS011;700;51.906;8.404;2023-04-08T12:20:33;14.43;;;12.90;;
1410;SDS011;700;51.906;8.404;2023-04-08T12:25:34;14.57;;;12.30;;
1410;SDS011;700;51.906;8.404;2023-04-08T12:30:36;16.23;;;14.53;;
1410;SDS011;700;51.906;8.404;2023-04-08T12:35:37;17.33;;;14.43;;
1410;SDS011;700;51.906;8.404;2023-04-08T12:40:40;17.37;;;14.83;;
1410;SDS011;700;51.906;8.404;2023-04-08T12:45:43;15.87;;;13.30;;
1410;SDS011;700;51.906;8.404;2023-04-08T12:50:44;16.03;;;13.50;;
1410;SDS011;700;51.906;8.404;2023-04-08T12:55:47;15.50;;;13.90;;
1410;SDS011;700;51.906;8.404;2023-04-08T13:00:52;14.97;;;13.07;;
1410;SDS011;700;51.906;8.404;2023-04-08T13:05:53;14.37;;;11.97;;
1410;SDS011;700;51.906;8.404;2023-04-08T13:10:54;14.40;;;12.93;;
1410;SDS011;700;51.906;8.404;2023-04-08T13:15:54;17.30;;;13.87;;
1410;SDS011;700;51.906;8.404;2023-04-08T13:20:55;16.43;;;14.33;;
1410;SDS011;700;51.906;8.404;2023-04-08T13:25:57;16.83;;;13.73;;
1410;SDS011;700;51.906;8.404;2023-04-08T13:30:58;15.87;;;13.77;;
1410;SDS011;700;51.906;8.404;2023-04-08T13:35:58;14.93;;;13.33;;
1410;SDS011;700;51.906;8.404;2023-04-08T13:41:02;18.60;;;14.27;;
1410;SDS011;700;51.906;8.404;2023-04-08T13:46:03;17.97;;;16.10;;
1410;SDS011;700;51.906;8.404;2023-04-08T13:51:05;20.03;;;14.80;;
1410;SDS011;700;51.906;8.404;2023-04-08T13:56:06;20.53;;;15.10;;
1410;SDS011;700;51.906;8.404;2023-04-08T14:01:09;16.17;;;14.47;;
1410;SDS011;700;51.906;8.404;2023-04-08T14:06:10;17.63;;;15.20;;
1410;SDS011;700;51.906;8.404;2023-04-08T14:11:13;19.70;;;15.83;;
1410;SDS011;700;51.906;8.404;2023-04-08T14:16:14;17.13;;;15.00;;
1410;SDS011;700;51.906;8.404;2023-04-08T14:21:15;17.30;;;14.70;;
1410;SDS011;700;51.906;8.404;2023-04-08T14:26:19;19.63;;;16.17;;
1410;SDS011;700;51.906;8.404;2023-04-08T14:31:20;18.13;;;15.67;;
1410;SDS011;700;51.906;8.404;2023-04-08T14:36:20;19.63;;;15.37;;
1410;SDS011;700;51.906;8.404;2023-04-08T14:41:23;19.30;;;16.10;;
1410;SDS011;700;51.906;8.404;2023-04-08T14:46:26;18.00;;;14.90;;
1410;SDS011;700;51.906;8.404;2023-04-08T14:51:26;17.43;;;15.60;;
1410;SDS011;700;51.906;8.404;2023-04-08T14:56:30;18.90;;;14.10;;
1410;SDS011;700;51.906;8.404;2023-04-08T15:01:35;18.20;;;15.33;;
1410;SDS011;700;51.906;8.404;2023-04-08T15:06:38;16.53;;;14.83;;
1410;SDS011;700;51.906;8.404;2023-04-08T15:11:41;18.33;;;15.70;;
1410;SDS011;700;51.906;8.404;2023-04-08T15:16:44;18.20;;;14.70;;
1410;SDS011;700;51.906;8.404;2023-04-08T15:21:45;17.67;;;15.77;;
1410;SDS011;700;51.906;8.404;2023-04-08T15:26:48;17.23;;;15.43;;
1410;SDS011;700;51.906;8.404;2023-04-08T15:31:49;18.03;;;14.30;;
1410;SDS011;700;51.906;8.404;2023-04-08T15:36:49;20.43;;;17.30;;
1410;SDS011;700;51.906;8.404;2023-04-08T15:41:52;19.90;;;14.67;;
1410;SDS011;700;51.906;8.404;2023-04-08T15:46:53;17.07;;;13.97;;
1410;SDS011;700;51.906;8.404;2023-04-08T15:51:55;18.90;;;14.80;;
1410;SDS011;700;51.906;8.404;2023-04-08T15:56:56;18.43;;;16.20;;
1410;SDS011;700;51.906;8.404;2023-04-08T16:01:58;18.77;;;16.37;;
1410;SDS011;700;51.906;8.404;2023-04-08T16:06:59;22.00;;;18.97;;
1410;SDS011;700;51.906;8.404;2023-04-08T16:12:03;18.07;;;15.67;;
1410;SDS011;700;51.906;8.404;2023-04-08T16:17:03;19.47;;;15.80;;
1410;SDS011;700;51.906;8.404;2023-04-08T16:22:04;19.97;;;16.47;;
1410;SDS011;700;51.906;8.404;2023-04-08T16:27:05;21.33;;;17.77;;
1410;SDS011;700;51.906;8.404;2023-04-08T16:32:08;21.97;;;18.33;;
1410;SDS011;700;51.906;8.404;2023-04-08T16:37:08;19.33;;;15.83;;
1410;SDS011;700;51.906;8.404;2023-04-08T16:42:09;18.10;;;14.70;;
1410;SDS011;700;51.906;8.404;2023-04-08T16:47:12;18.63;;;15.37;;
1410;SDS011;700;51.906;8.404;2023-04-08T16:52:12;18.20;;;15.40;;
1410;SDS011;700;51.906;8.404;2023-04-08T16:57:13;19.93;;;16.53;;
1410;SDS011;700;51.906;8.404;2023-04-08T17:02:13;19.67;;;16.87;;
1410;SDS011;700;51.906;8.404;2023-04-08T17:07:15;21.90;;;17.80;;
1410;SDS011;700;51.906;8.404;2023-04-08T17:12:16;19.23;;;16.50;;
1410;SDS011;700;51.906;8.404;2023-04-08T17:17:16;25.17;;;19.53;;
1410;SDS011;700;51.906;8.404;2023-04-08T17:22:19;23.63;;;18.70;;
1410;SDS011;700;51.906;8.404;2023-04-08T17:27:20;21.13;;;18.23;;
1410;SDS011;700;51.906;8.404;2023-04-08T17:32:23;24.50;;;18.47;;
1410;SDS011;700;51.906;8.404;2023-04-08T17:37:26;22.77;;;18.13;;
1410;SDS011;700;51.906;8.404;2023-04-08T17:42:31;21.77;;;18.47;;
1410;SDS011;700;51.906;8.404;2023-04-08T17:47:32;23.80;;;19.70;;
1410;SDS011;700;51.906;8.404;2023-04-08T17:52:32;23.70;;;18.87;;
1410;SDS011;700;51.906;8.404;2023-04-08T17:57:35;22.57;;;18.50;;
1410;SDS011;700;51.906;8.404;2023-04-08T18:02:36;21.63;;;17.63;;
1410;SDS011;700;51.906;8.404;2023-04-08T18:07:40;26.73;;;18.50;;
1410;SDS011;700;51.906;8.404;2023-04-08T18:12:44;23.13;;;18.13;;
1410;SDS011;700;51.906;8.404;2023-04-08T18:17:45;24.33;;;18.73;;
1410;SDS011;700;51.906;8.404;2023-04-08T18:22:45;23.70;;;18.07;;
1410;SDS011;700;51.906;8.404;2023-04-08T18:27:48;20.33;;;16.87;;
1410;SDS011;700;51.906;8.404;2023-04-08T18:32:51;22.37;;;18.03;;
1410;SDS011;700;51.906;8.404;2023-04-08T18:37:54;23.67;;;19.30;;
1410;SDS011;700;51.906;8.404;2023-04-08T18:42:56;23.13;;;17.87;;
1410;SDS011;700;51.906;8.404;2023-04-08T18:48:03;23.73;;;18.73;;
1410;SDS011;700;51.906;8.404;2023-04-08T18:53:03;29.90;;;19.37;;
1410;SDS011;700;51.906;8.404;2023-04-08T18:58:06;23.40;;;17.70;;
1410;SDS011;700;51.906;8.404;2023-04-08T19:03:07;22.60;;;18.50;;
1410;SDS011;700;51.906;8.404;2023-04-08T19:08:10;25.33;;;19.10;;
1410;SDS011;700;51.906;8.404;2023-04-08T19:13:13;26.63;;;20.40;;
1410;SDS011;700;51.906;8.404;2023-04-08T19:18:14;23.33;;;18.53;;
1410;SDS011;700;51.906;8.404;2023-04-08T19:23:17;26.80;;;21.30;;
1410;SDS011;700;51.906;8.404;2023-04-08T19:28:18;27.73;;;19.17;;
1410;SDS011;700;51.906;8.404;2023-04-08T19:33:21;32.73;;;21.30;;
1410;SDS011;700;51.906;8.404;2023-04-08T19:38:26;35.00;;;25.90;;
1410;SDS011;700;51.906;8.404;2023-04-08T19:43:27;40.37;;;30.80;;
1410;SDS011;700;51.906;8.404;2023-04-08T19:48:29;44.33;;;32.33;;
1410;SDS011;700;51.906;8.404;2023-04-08T19:53:31;39.20;;;30.00;;
1410;SDS011;700;51.906;8.404;2023-04-08T19:58:32;37.50;;;27.60;;
1410;SDS011;700;51.906;8.404;2023-04-08T20:03:32;32.33;;;24.23;;
1410;SDS011;700;51.906;8.404;2023-04-08T20:08:35;29.27;;;20.63;;
1410;SDS011;700;51.906;8.404;2023-04-08T20:13:36;25.03;;;18.93;;
1410;SDS011;700;51.906;8.404;2023-04-08T20:18:37;24.50;;;17.57;;
1410;SDS011;700;51.906;8.404;2023-04-08T20:23:37;23.10;;;17.03;;
1410;SDS011;700;51.906;8.404;2023-04-08T20:28:43;20.83;;;16.07;;
1410;SDS011;700;51.906;8.404;2023-04-08T20:33:47;23.70;;;17.00;;
1410;SDS011;700;51.906;8.404;2023-04-08T20:38:49;20.50;;;16.90;;
1410;SDS011;700;51.906;8.404;2023-04-08T20:43:50;25.63;;;17.00;;
1410;SDS011;700;51.906;8.404;2023-04-08T20:48:56;24.17;;;17.47;;
1410;SDS011;700;51.906;8.404;2023-04-08T20:53:57;27.53;;;19.20;;
1410;SDS011;700;51.906;8.404;2023-04-08T20:59:00;26.07;;;18.33;;
1410;SDS011;700;51.906;8.404;2023-04-08T21:04:03;23.63;;;17.33;;
1410;SDS011;700;51.906;8.404;2023-04-08T21:09:04;25.07;;;17.77;;
1410;SDS011;700;51.906;8.404;2023-04-08T21:14:07;24.20;;;18.47;;
1410;SDS011;700;51.906;8.404;2023-04-08T21:19:08;26.70;;;19.07;;
1410;SDS011;700;51.906;8.404;2023-04-08T21:24:08;30.33;;;21.67;;
1410;SDS011;700;51.906;8.404;2023-04-08T21:29:11;27.47;;;19.77;;
1410;SDS011;700;51.906;8.404;2023-04-08T21:34:14;31.10;;;22.00;;
1410;SDS011;700;51.906;8.404;2023-04-08T21:39:15;30.03;;;22.77;;
1410;SDS011;700;51.906;8.404;2023-04-08T21:44:18;29.63;;;21.40;;
1410;SDS011;700;51.906;8.404;2023-04-08T21:49:19;31.13;;;22.27;;
1410;SDS011;700;51.906;8.404;2023-04-08T21:54:22;31.07;;;22.40;;
1410;SDS011;700;51.906;8.404;2023-04-08T21:59:27;31.67;;;22.07;;
1410;SDS011;700;51.906;8.404;2023-04-08T22:04:28;31.07;;;23.30;;
1410;SDS011;700;51.906;8.404;2023-04-08T22:09:28;35.37;;;25.23;;
1410;SDS011;700;51.906;8.404;2023-04-08T22:14:31;29.07;;;21.67;;
1410;SDS011;700;51.906;8.404;2023-04-08T22:19:32;29.30;;;21.47;;
1410;SDS011;700;51.906;8.404;2023-04-08T22:24:32;30.30;;;22.17;;
1410;SDS011;700;51.906;8.404;2023-04-08T22:29:35;32.80;;;23.43;;
1410;SDS011;700;51.906;8.404;2023-04-08T22:34:36;28.20;;;20.63;;
1410;SDS011;700;51.906;8.404;2023-04-08T22:39:39;30.20;;;23.07;;
1410;SDS011;700;51.906;8.404;2023-04-08T22:44:39;33.87;;;23.93;;
1410;SDS011;700;51.906;8.404;2023-04-08T22:49:40;29.77;;;21.70;;
1410;SDS011;700;51.906;8.404;2023-04-08T22:54:41;38.93;;;23.67;;
1410;SDS011;700;51.906;8.404;2023-04-08T22:59:42;33.90;;;23.23;;
1410;SDS011;700;51.906;8.404;2023-04-08T23:04:42;32.77;;;23.53;;
1410;SDS011;700;51.906;8.404;2023-04-08T23:09:45;36.93;;;24.13;;
1410;SDS011;700;51.906;8.404;2023-04-08T23:14:46;36.83;;;24.87;;
1410;SDS011;700;51.906;8.404;2023-04-08T23:19:47;36.27;;;24.00;;
1410;SDS011;700;51.906;8.404;2023-04-08T23:24:47;36.80;;;25.27;;
1410;SDS011;700;51.906;8.404;2023-04-08T23:29:50;33.73;;;23.80;;
1410;SDS011;700;51.906;8.404;2023-04-08T23:34:51;34.67;;;24.60;;
1410;SDS011;700;51.906;8.404;2023-04-08T23:39:51;36.33;;;24.80;;
1410;SDS011;700;51.906;8.404;2023-04-08T23:44:52;39.20;;;24.53;;
1410;SDS011;700;51.906;8.404;2023-04-08T23:49:56;37.00;;;26.67;;
1410;SDS011;700;51.906;8.404;2023-04-08T23:54:56;35.87;;;24.63;;
1410;SDS011;700;51.906;8.404;2023-04-08T23:59:59;35.33;;;24.40;;
